createdAt,value
2023-04-03T00:00:41.713Z,1.58
2023-04-03T00:01:44.188Z,2.88
2023-04-03T00:02:47.445Z,1.52
2023-04-03T00:03:49.939Z,2.85
2023-04-03T00:04:52.395Z,2.10
2023-04-03T00:05:55.656Z,1.05
2023-04-03T00:06:58.162Z,1.80
2023-04-03T00:08:02.837Z,2.22
2023-04-03T00:09:05.243Z,1.42
2023-04-03T00:10:08.478Z,1.40
2023-04-03T00:11:11.232Z,1.45
2023-04-03T00:12:13.602Z,2.47
2023-04-03T00:13:16.256Z,2.00
2023-04-03T00:14:18.617Z,1.38
2023-04-03T00:15:21.121Z,3.33
2023-04-03T00:16:23.587Z,1.70
2023-04-03T00:17:26.426Z,2.00
2023-04-03T00:18:28.813Z,1.63
2023-04-03T00:19:31.337Z,1.30
2023-04-03T00:20:34.709Z,1.75
2023-04-03T00:21:37.512Z,1.75
2023-04-03T00:22:39.901Z,1.20
2023-04-03T00:23:42.603Z,1.45
2023-04-03T00:24:44.987Z,1.40
2023-04-03T00:25:47.488Z,1.30
2023-04-03T00:26:50.420Z,4.07
2023-04-03T00:27:53.252Z,1.17
2023-04-03T00:28:55.702Z,0.85
2023-04-03T00:29:59.542Z,1.50
2023-04-03T00:31:02.054Z,2.70
2023-04-03T00:32:04.507Z,1.05
2023-04-03T00:33:07.161Z,1.05
2023-04-03T00:34:11.047Z,2.25
2023-04-03T00:35:16.546Z,1.45
2023-04-03T00:36:19.050Z,3.63
2023-04-03T00:37:21.544Z,1.38
2023-04-03T00:38:23.884Z,1.27
2023-04-03T00:39:26.376Z,1.45
2023-04-03T00:40:34.350Z,4.13
2023-04-03T00:41:37.264Z,1.23
2023-04-03T00:42:41.888Z,1.65
2023-04-03T00:43:44.791Z,1.15
2023-04-03T00:44:47.073Z,1.77
2023-04-03T00:45:51.660Z,1.83
2023-04-03T00:46:54.197Z,2.50
2023-04-03T00:48:00.746Z,2.45
2023-04-03T00:49:03.108Z,1.95
2023-04-03T00:50:07.047Z,1.88
2023-04-03T00:51:14.734Z,1.20
2023-04-03T00:52:20.471Z,1.48
2023-04-03T00:53:40.773Z,1.33
2023-04-03T00:54:44.678Z,1.58
2023-04-03T00:55:49.120Z,1.65
2023-04-03T00:56:54.189Z,1.45
2023-04-03T00:57:58.327Z,2.30
2023-04-03T00:59:05.485Z,1.50
2023-04-03T01:00:13.388Z,1.63
2023-04-03T01:01:21.440Z,1.35
2023-04-03T01:02:24.248Z,1.30
2023-04-03T01:03:27.510Z,1.65
2023-04-03T01:04:42.331Z,1.35
2023-04-03T01:05:45.452Z,1.17
2023-04-03T01:06:47.864Z,1.30
2023-04-03T01:07:52.145Z,1.40
2023-04-03T01:08:56.250Z,1.15
2023-04-03T01:10:01.961Z,1.25
2023-04-03T01:11:04.579Z,1.50
2023-04-03T01:12:22.037Z,1.88
2023-04-03T01:13:30.173Z,2.15
2023-04-03T01:14:33.210Z,2.55
2023-04-03T01:15:36.161Z,1.90
2023-04-03T01:16:40.440Z,2.53
2023-04-03T01:17:57.532Z,1.15
2023-04-03T01:19:01.858Z,1.27
2023-04-03T01:20:28.829Z,0.70
2023-04-03T01:22:15.482Z,3.17
2023-04-03T01:23:17.850Z,2.60
2023-04-03T01:24:28.465Z,1.25
2023-04-03T01:25:32.330Z,0.95
2023-04-03T01:26:36.629Z,1.95
2023-04-03T01:27:38.938Z,0.90
2023-04-03T01:28:41.464Z,2.97
2023-04-03T01:29:44.742Z,4.45
2023-04-03T01:30:54.075Z,1.00
2023-04-03T01:31:59.852Z,1.00
2023-04-03T01:33:02.790Z,3.33
2023-04-03T01:34:05.386Z,1.25
2023-04-03T01:35:09.917Z,0.80
2023-04-03T01:36:17.310Z,2.85
2023-04-03T01:37:19.702Z,1.00
2023-04-03T01:38:22.055Z,1.38
2023-04-03T01:39:24.751Z,1.40
2023-04-03T01:40:27.561Z,1.15
2023-04-03T01:41:30.274Z,1.30
2023-04-03T01:42:39.936Z,1.23
2023-04-03T01:43:42.405Z,1.00
2023-04-03T01:44:45.694Z,1.35
2023-04-03T01:45:50.227Z,1.70
2023-04-03T01:46:53.628Z,2.25
2023-04-03T01:47:57.662Z,1.23
2023-04-03T01:49:01.875Z,1.40
2023-04-03T01:50:05.518Z,5.50
2023-04-03T01:51:09.885Z,2.20
2023-04-03T01:52:12.344Z,1.35
2023-04-03T01:53:14.983Z,2.13
2023-04-03T01:54:17.337Z,1.23
2023-04-03T01:55:20.310Z,1.08
2023-04-03T01:56:22.806Z,1.40
2023-04-03T01:57:26.036Z,2.38
2023-04-03T01:58:29.241Z,1.55
2023-04-03T01:59:31.634Z,1.83
2023-04-03T02:00:34.206Z,1.20
2023-04-03T02:01:37.341Z,1.63
2023-04-03T02:02:40.642Z,143.15
2023-04-03T02:03:43.446Z,182.93
2023-04-03T02:04:45.892Z,158.80
2023-04-03T02:05:48.452Z,72.55
2023-04-03T02:06:51.921Z,42.17
2023-04-03T02:07:54.306Z,30.58
2023-04-03T02:08:56.638Z,29.10
2023-04-03T02:09:58.941Z,18.70
2023-04-03T02:11:02.135Z,17.30
2023-04-03T02:12:04.632Z,14.32
2023-04-03T02:13:08.353Z,15.32
2023-04-03T02:14:11.147Z,12.75
2023-04-03T02:15:14.168Z,16.77
2023-04-03T02:16:17.308Z,12.10
2023-04-03T02:17:19.719Z,11.18
2023-04-03T02:18:22.111Z,8.80
2023-04-03T02:19:25.028Z,10.73
2023-04-03T02:20:27.417Z,7.13
2023-04-03T02:21:29.819Z,14.27
2023-04-03T02:22:32.390Z,9.25
2023-04-03T02:23:36.988Z,26.33
2023-04-03T02:24:41.168Z,119.28
2023-04-03T02:25:43.536Z,132.00
2023-04-03T02:26:45.999Z,45.90
2023-04-03T02:27:48.622Z,30.33
2023-04-03T02:28:51.187Z,27.50
2023-04-03T02:29:53.719Z,23.85
2023-04-03T02:30:56.320Z,16.67
2023-04-03T02:31:58.825Z,19.25
2023-04-03T02:33:01.446Z,15.00
2023-04-03T02:34:03.931Z,14.77
2023-04-03T02:35:06.953Z,16.35
2023-04-03T02:36:10.720Z,11.52
2023-04-03T02:37:16.241Z,12.05
2023-04-03T02:38:21.006Z,9.50
2023-04-03T02:39:24.106Z,8.60
2023-04-03T02:40:26.760Z,12.60
2023-04-03T02:41:35.702Z,9.18
2023-04-03T02:42:39.744Z,12.60
2023-04-03T02:43:42.500Z,9.73
2023-04-03T02:44:45.509Z,9.27
2023-04-03T02:45:47.907Z,9.95
2023-04-03T02:46:50.893Z,9.88
2023-04-03T02:47:53.418Z,8.45
2023-04-03T02:48:55.952Z,5.63
2023-04-03T02:49:58.396Z,7.32
2023-04-03T02:51:00.815Z,7.82
2023-04-03T02:52:03.230Z,158.57
2023-04-03T02:53:06.444Z,234.50
2023-04-03T02:54:09.476Z,112.18
2023-04-03T02:55:16.860Z,62.08
2023-04-03T02:56:21.188Z,44.85
2023-04-03T02:57:23.703Z,38.15
2023-04-03T02:58:26.087Z,34.88
2023-04-03T02:59:31.499Z,30.80
2023-04-03T03:00:34.174Z,25.73
2023-04-03T03:01:37.102Z,23.25
2023-04-03T03:02:40.004Z,21.92
2023-04-03T03:03:42.553Z,18.83
2023-04-03T03:04:44.939Z,17.92
2023-04-03T03:05:49.038Z,18.08
2023-04-03T03:06:51.889Z,16.20
2023-04-03T03:07:54.853Z,16.52
2023-04-03T03:08:57.322Z,13.25
2023-04-03T03:09:59.735Z,11.50
2023-04-03T03:11:03.597Z,11.00
2023-04-03T03:12:06.140Z,10.00
2023-04-03T03:13:08.516Z,10.93
2023-04-03T03:14:11.030Z,10.60
2023-04-03T03:15:13.451Z,9.15
2023-04-03T03:16:15.913Z,8.65
2023-04-03T03:17:18.705Z,27.00
2023-04-03T03:18:22.364Z,85.55
2023-04-03T03:19:25.633Z,46.72
2023-04-03T03:20:28.403Z,64.40
2023-04-03T03:21:31.026Z,48.08
2023-04-03T03:22:33.531Z,45.60
2023-04-03T03:23:36.116Z,45.95
2023-04-03T03:24:38.524Z,41.45
2023-04-03T03:25:41.680Z,41.42
2023-04-03T03:26:44.311Z,34.13
2023-04-03T03:27:47.371Z,32.45
2023-04-03T03:28:49.750Z,29.42
2023-04-03T03:29:52.277Z,28.38
2023-04-03T03:30:54.877Z,29.63
2023-04-03T03:31:58.290Z,28.70
2023-04-03T03:33:00.783Z,28.35
2023-04-03T03:34:03.213Z,26.17
2023-04-03T03:35:06.179Z,23.20
2023-04-03T03:36:11.757Z,23.35
2023-04-03T03:37:14.271Z,21.13
2023-04-03T03:38:16.907Z,18.85
2023-04-03T03:39:19.322Z,16.60
2023-04-03T03:40:21.773Z,18.05
2023-04-03T03:41:24.288Z,20.35
2023-04-03T03:42:26.679Z,19.33
2023-04-03T03:43:29.631Z,17.67
2023-04-03T03:44:32.125Z,20.35
2023-04-03T03:45:37.001Z,18.92
2023-04-03T03:46:39.691Z,16.98
2023-04-03T03:47:42.309Z,18.55
2023-04-03T03:48:45.319Z,21.00
2023-04-03T03:49:47.738Z,17.70
2023-04-03T03:50:51.426Z,18.05
2023-04-03T03:51:56.140Z,10.93
2023-04-03T03:52:58.893Z,69.22
2023-04-03T03:54:01.349Z,158.35
2023-04-03T03:55:04.023Z,152.35
2023-04-03T03:56:06.766Z,105.90
2023-04-03T03:57:11.751Z,104.78
2023-04-03T03:58:14.314Z,89.03
2023-04-03T03:59:17.507Z,74.55
2023-04-03T04:00:21.062Z,52.63
2023-04-03T04:01:29.244Z,52.70
2023-04-03T04:02:32.077Z,47.25
2023-04-03T04:03:35.273Z,39.75
2023-04-03T04:04:38.536Z,42.87
2023-04-03T04:05:40.992Z,36.72
2023-04-03T04:06:43.939Z,35.90
2023-04-03T04:07:47.273Z,31.73
2023-04-03T04:08:52.898Z,33.25
2023-04-03T04:09:55.889Z,30.80
2023-04-03T04:10:58.305Z,31.25
2023-04-03T04:12:00.835Z,32.92
2023-04-03T04:13:03.868Z,31.67
2023-04-03T04:14:08.829Z,32.97
2023-04-03T04:15:16.004Z,32.47
2023-04-03T04:16:19.239Z,32.55
2023-04-03T04:17:22.503Z,30.70
2023-04-03T04:18:25.595Z,29.85
2023-04-03T04:19:28.057Z,31.38
2023-04-03T04:20:30.472Z,32.15
2023-04-03T04:21:33.231Z,32.63
2023-04-03T04:22:36.080Z,28.30
2023-04-03T04:23:41.101Z,30.55
2023-04-03T04:24:45.566Z,33.30
2023-04-03T04:25:51.256Z,26.63
2023-04-03T04:26:54.395Z,28.08
2023-04-03T04:27:58.042Z,21.60
2023-04-03T04:29:04.131Z,66.78
2023-04-03T04:30:10.942Z,92.95
2023-04-03T04:31:17.223Z,68.38
2023-04-03T04:32:19.853Z,98.22
2023-04-03T04:33:22.535Z,70.40
2023-04-03T04:34:45.010Z,65.88
2023-04-03T04:35:53.002Z,56.35
2023-04-03T04:36:57.418Z,45.50
2023-04-03T04:38:01.113Z,42.78
2023-04-03T04:39:04.834Z,36.58
2023-04-03T04:40:08.052Z,36.72
2023-04-03T04:41:10.520Z,37.70
2023-04-03T04:42:16.820Z,35.08
2023-04-03T04:43:22.181Z,34.17
2023-04-03T04:44:27.635Z,30.40
2023-04-03T04:45:30.302Z,34.67
2023-04-03T04:46:35.949Z,36.83
2023-04-03T04:47:38.687Z,34.03
2023-04-03T04:48:41.497Z,35.00
2023-04-03T04:49:44.358Z,35.67
2023-04-03T04:50:47.263Z,38.20
2023-04-03T04:51:52.314Z,33.08
2023-04-03T04:53:01.340Z,31.85
2023-04-03T04:54:04.267Z,33.53
2023-04-03T04:55:08.039Z,34.88
2023-04-03T04:56:11.038Z,35.30
2023-04-03T04:57:14.810Z,31.90
2023-04-03T04:58:17.375Z,28.08
2023-04-03T04:59:21.499Z,32.08
2023-04-03T05:00:24.958Z,26.27
2023-04-03T05:01:27.391Z,29.15
2023-04-03T05:02:36.329Z,28.02
2023-04-03T05:03:38.956Z,28.27
2023-04-03T05:04:41.635Z,27.35
2023-04-03T05:05:49.766Z,27.98
2023-04-03T05:06:52.195Z,25.55
2023-04-03T05:07:58.992Z,23.40
2023-04-03T05:09:02.180Z,25.10
2023-04-03T05:10:06.707Z,32.33
2023-04-03T05:11:09.869Z,26.80
2023-04-03T05:12:13.349Z,33.15
2023-04-03T05:13:21.985Z,32.92
2023-04-03T05:14:25.200Z,27.13
2023-04-03T05:15:28.969Z,27.67
2023-04-03T05:16:32.070Z,24.98
2023-04-03T05:17:34.644Z,25.75
2023-04-03T05:18:38.397Z,24.67
2023-04-03T05:19:45.794Z,28.10
2023-04-03T05:20:51.588Z,25.25
2023-04-03T05:21:55.777Z,25.40
2023-04-03T05:22:59.162Z,30.45
2023-04-03T05:24:04.227Z,28.30
2023-04-03T05:25:09.588Z,26.40
2023-04-03T05:26:12.645Z,26.58
2023-04-03T05:27:20.724Z,27.73
2023-04-03T05:28:27.940Z,24.08
2023-04-03T05:29:31.933Z,27.45
2023-04-03T05:30:36.150Z,22.52
2023-04-03T05:31:39.540Z,24.23
2023-04-03T05:32:44.023Z,24.45
2023-04-03T05:34:03.835Z,20.55
2023-04-03T05:35:09.845Z,24.40
2023-04-03T05:36:13.707Z,22.52
2023-04-03T05:37:21.325Z,23.73
2023-04-03T05:38:26.574Z,23.75
2023-04-03T05:39:31.710Z,32.03
2023-04-03T05:40:35.319Z,22.42
2023-04-03T05:41:37.868Z,20.63
2023-04-03T05:42:41.071Z,20.35
2023-04-03T05:43:44.041Z,21.33
2023-04-03T05:44:48.167Z,24.35
2023-04-03T05:45:51.755Z,23.73
2023-04-03T05:46:55.553Z,23.30
2023-04-03T05:47:58.084Z,22.63
2023-04-03T05:49:01.190Z,25.58
2023-04-03T05:50:07.366Z,18.98
2023-04-03T05:51:20.005Z,21.42
2023-04-03T05:52:41.155Z,20.60
2023-04-03T05:53:45.190Z,22.00
2023-04-03T05:54:49.090Z,21.48
2023-04-03T05:55:56.747Z,22.83
2023-04-03T05:57:00.481Z,20.67
2023-04-03T05:58:03.733Z,24.23
2023-04-03T05:59:06.392Z,20.45
2023-04-03T06:00:13.641Z,21.08
2023-04-03T06:01:24.460Z,19.98
2023-04-03T06:02:28.237Z,19.88
2023-04-03T06:03:31.077Z,18.95
2023-04-03T06:04:34.014Z,21.23
2023-04-03T06:05:37.715Z,19.73
2023-04-03T06:06:56.751Z,21.00
2023-04-03T06:07:59.337Z,20.25
2023-04-03T06:09:03.754Z,21.17
2023-04-03T06:10:07.721Z,17.98
2023-04-03T06:11:10.435Z,18.20
2023-04-03T06:12:13.029Z,18.27
2023-04-03T06:13:16.074Z,19.23
2023-04-03T06:14:18.703Z,22.75
2023-04-03T06:15:22.088Z,20.65
2023-04-03T06:16:25.365Z,18.83
2023-04-03T06:17:28.149Z,22.70
2023-04-03T06:18:31.111Z,19.20
2023-04-03T06:19:34.120Z,20.20
2023-04-03T06:20:37.404Z,22.25
2023-04-03T06:21:40.807Z,21.30
2023-04-03T06:22:43.508Z,19.40
2023-04-03T06:23:47.532Z,18.20
2023-04-03T06:24:50.244Z,17.40
2023-04-03T06:25:52.648Z,19.60
2023-04-03T06:26:58.537Z,17.60
2023-04-03T06:28:03.124Z,17.45
2023-04-03T06:29:05.571Z,20.23
2023-04-03T06:30:08.772Z,18.42
2023-04-03T06:31:11.260Z,20.73
2023-04-03T06:32:13.756Z,21.55
2023-04-03T06:33:16.358Z,18.50
2023-04-03T06:34:19.035Z,19.83
2023-04-03T06:35:21.906Z,18.05
2023-04-03T06:36:24.513Z,17.70
2023-04-03T06:37:27.059Z,18.75
2023-04-03T06:38:29.448Z,16.25
2023-04-03T06:39:33.543Z,20.42
2023-04-03T06:40:37.160Z,17.95
2023-04-03T06:41:39.636Z,21.63
2023-04-03T06:42:42.017Z,19.65
2023-04-03T06:43:47.893Z,19.45
2023-04-03T06:44:50.843Z,15.73
2023-04-03T06:45:54.186Z,18.75
2023-04-03T06:46:58.737Z,17.85
2023-04-03T06:48:01.189Z,15.88
2023-04-03T06:49:03.766Z,17.33
2023-04-03T06:50:07.927Z,16.73
2023-04-03T06:51:23.549Z,16.92
2023-04-03T06:52:26.181Z,20.10
2023-04-03T06:53:28.578Z,17.33
2023-04-03T06:54:31.271Z,17.20
2023-04-03T06:55:34.419Z,18.33
2023-04-03T06:56:37.158Z,16.65
2023-04-03T06:57:40.649Z,17.52
2023-04-03T06:58:44.249Z,15.35
2023-04-03T06:59:47.641Z,19.05
2023-04-03T07:00:51.202Z,18.20
2023-04-03T07:01:53.733Z,14.18
2023-04-03T07:02:57.719Z,15.90
2023-04-03T07:04:01.308Z,14.73
2023-04-03T07:05:05.668Z,18.33
2023-04-03T07:06:11.810Z,15.93
2023-04-03T07:07:14.460Z,15.90
2023-04-03T07:08:17.363Z,17.98
2023-04-03T07:09:21.599Z,19.38
2023-04-03T07:10:24.266Z,16.25
2023-04-03T07:11:27.213Z,16.75
2023-04-03T07:12:29.806Z,16.25
2023-04-03T07:13:34.763Z,16.67
2023-04-03T07:14:37.190Z,16.88
2023-04-03T07:15:39.947Z,16.77
2023-04-03T07:16:42.947Z,16.35
2023-04-03T07:17:45.766Z,15.30
2023-04-03T07:18:48.497Z,18.95
2023-04-03T07:19:53.303Z,17.35
2023-04-03T07:20:56.443Z,16.58
2023-04-03T07:21:59.284Z,15.65
2023-04-03T07:23:04.200Z,18.00
2023-04-03T07:24:08.881Z,17.08
2023-04-03T07:25:14.343Z,16.10
2023-04-03T07:26:16.881Z,13.95
2023-04-03T07:27:19.598Z,19.20
2023-04-03T07:28:24.693Z,14.20
2023-04-03T07:29:27.183Z,15.27
2023-04-03T07:30:29.601Z,18.08
2023-04-03T07:31:32.375Z,15.50
2023-04-03T07:32:35.017Z,16.27
2023-04-03T07:33:38.850Z,15.95
2023-04-03T07:34:41.737Z,14.95
2023-04-03T07:35:44.756Z,14.13
2023-04-03T07:36:47.456Z,15.05
2023-04-03T07:37:49.822Z,15.98
2023-04-03T07:38:52.408Z,15.25
2023-04-03T07:39:56.188Z,13.98
2023-04-03T07:40:59.101Z,17.30
2023-04-03T07:42:03.195Z,16.20
2023-04-03T07:43:06.779Z,17.30
2023-04-03T07:44:10.944Z,18.73
2023-04-03T07:45:13.373Z,15.38
2023-04-03T07:46:15.843Z,17.08
2023-04-03T07:47:19.064Z,15.75
2023-04-03T07:48:24.081Z,16.15
2023-04-03T07:49:27.117Z,17.85
2023-04-03T07:50:31.400Z,14.82
2023-04-03T07:51:36.229Z,14.32
2023-04-03T07:52:38.662Z,17.52
2023-04-03T07:53:41.125Z,16.05
2023-04-03T07:54:43.715Z,16.35
2023-04-03T07:55:50.018Z,14.15
2023-04-03T07:56:54.900Z,15.38
2023-04-03T07:57:57.472Z,16.48
2023-04-03T07:59:00.190Z,14.57
2023-04-03T08:00:04.254Z,17.73
2023-04-03T08:01:14.727Z,13.80
2023-04-03T08:02:17.648Z,14.30
2023-04-03T08:03:20.180Z,14.25
2023-04-03T08:04:22.994Z,15.05
2023-04-03T08:05:26.265Z,14.30
2023-04-03T08:06:44.770Z,16.10
2023-04-03T08:07:49.805Z,17.38
2023-04-03T08:08:52.965Z,15.07
2023-04-03T08:09:55.371Z,16.42
2023-04-03T08:11:00.737Z,14.43
2023-04-03T08:12:03.187Z,15.43
2023-04-03T08:13:06.038Z,13.55
2023-04-03T08:14:17.412Z,16.27
2023-04-03T08:15:20.183Z,14.05
2023-04-03T08:16:27.771Z,12.77
2023-04-03T08:17:30.536Z,14.45
2023-04-03T08:18:33.180Z,13.75
2023-04-03T08:19:35.991Z,11.85
2023-04-03T08:20:40.876Z,12.88
2023-04-03T08:21:43.719Z,14.77
2023-04-03T08:22:46.457Z,15.70
2023-04-03T08:23:53.978Z,13.68
2023-04-03T08:24:59.306Z,14.98
2023-04-03T08:26:09.745Z,15.48
2023-04-03T08:27:12.493Z,13.90
2023-04-03T08:28:15.120Z,14.23
2023-04-03T08:29:17.943Z,15.55
2023-04-03T08:30:20.727Z,13.40
2023-04-03T08:31:23.716Z,12.95
2023-04-03T08:32:26.662Z,13.77
2023-04-03T08:33:29.247Z,13.20
2023-04-03T08:34:35.700Z,13.80
2023-04-03T08:35:42.921Z,14.13
2023-04-03T08:36:46.155Z,11.80
2023-04-03T08:37:48.652Z,15.70
2023-04-03T08:38:53.376Z,16.38
2023-04-03T08:39:55.818Z,11.65
2023-04-03T08:41:23.427Z,15.43
2023-04-03T08:42:43.427Z,12.73
2023-04-03T08:44:00.896Z,13.13
2023-04-03T08:45:09.285Z,14.35
2023-04-03T08:46:16.338Z,11.52
2023-04-03T08:47:28.955Z,13.00
2023-04-03T08:48:42.836Z,13.40
2023-04-03T08:49:51.952Z,15.07
2023-04-03T08:51:03.731Z,12.88
2023-04-03T08:52:12.235Z,11.43
2023-04-03T08:53:22.326Z,14.20
2023-04-03T08:54:35.172Z,13.07
2023-04-03T08:55:44.987Z,12.93
2023-04-03T08:56:48.329Z,12.93
2023-04-03T08:58:02.651Z,11.90
2023-04-03T08:59:10.990Z,12.05
2023-04-03T09:00:28.001Z,12.32
2023-04-03T09:01:39.282Z,11.52
2023-04-03T09:03:50.931Z,13.82
2023-04-03T09:04:53.940Z,11.95
2023-04-03T09:06:08.275Z,11.00
2023-04-03T09:07:19.833Z,12.32
2023-04-03T09:08:24.375Z,12.02
2023-04-03T09:09:42.342Z,11.07
2023-04-03T09:10:45.213Z,13.07
2023-04-03T09:12:20.891Z,12.73
2023-04-03T09:13:28.117Z,13.52
2023-04-03T09:14:42.091Z,11.45
2023-04-03T09:15:45.464Z,13.48
2023-04-03T09:16:58.258Z,10.60
2023-04-03T09:18:06.506Z,12.52
2023-04-03T09:19:37.266Z,10.55
2023-04-03T09:21:20.793Z,11.25
2023-04-03T09:22:30.112Z,10.30
2023-04-03T09:23:48.355Z,13.10
2023-04-03T09:25:08.839Z,11.65
2023-04-03T09:26:18.777Z,11.38
2023-04-03T09:27:22.539Z,12.40
2023-04-03T09:28:25.295Z,9.85
2023-04-03T09:29:28.220Z,14.30
2023-04-03T09:30:31.366Z,10.80
2023-04-03T09:31:43.947Z,9.50
2023-04-03T09:32:54.954Z,9.13
2023-04-03T09:34:08.813Z,9.52
2023-04-03T09:35:23.450Z,8.75
2023-04-03T09:36:59.169Z,9.68
2023-04-03T09:38:20.328Z,7.50
2023-04-03T09:39:53.558Z,8.57
2023-04-03T09:41:19.725Z,8.35
2023-04-03T09:44:44.220Z,9.45
2023-04-03T09:46:58.995Z,10.30
2023-04-03T09:48:36.525Z,6.32
2023-04-03T09:50:17.642Z,8.02
2023-04-03T09:51:57.731Z,8.23
2023-04-03T09:53:44.288Z,8.45
2023-04-03T09:54:50.370Z,9.48
2023-04-03T09:56:08.546Z,8.40
2023-04-03T09:57:28.260Z,8.32
2023-04-03T09:58:58.165Z,10.15
2023-04-03T10:00:25.004Z,8.27
2023-04-03T10:01:58.140Z,9.18
2023-04-03T10:03:04.846Z,8.93
2023-04-03T10:04:22.621Z,8.68
2023-04-03T10:05:38.517Z,7.93
2023-04-03T10:06:55.881Z,6.40
2023-04-03T10:08:17.174Z,9.60
2023-04-03T10:09:37.059Z,8.18
2023-04-03T10:10:46.576Z,8.15
2023-04-03T10:12:11.588Z,8.77
2023-04-03T10:13:20.994Z,6.80
2023-04-03T10:14:24.158Z,6.40
2023-04-03T10:15:29.669Z,4.90
2023-04-03T10:16:38.789Z,4.10
2023-04-03T10:17:50.757Z,3.63
2023-04-03T10:19:06.241Z,5.93
2023-04-03T10:20:31.590Z,3.55
2023-04-03T10:22:00.083Z,3.83
2023-04-03T10:23:34.117Z,5.20
2023-04-03T10:24:48.382Z,3.75
2023-04-03T10:26:13.230Z,2.45
2023-04-03T10:27:37.184Z,4.90
2023-04-03T10:29:04.369Z,4.22
2023-04-03T10:30:31.028Z,3.92
2023-04-03T10:31:51.601Z,3.95
2023-04-03T10:33:01.833Z,3.38
2023-04-03T10:34:30.703Z,3.72
2023-04-03T10:35:50.004Z,3.90
2023-04-03T10:37:11.225Z,2.50
2023-04-03T10:38:54.043Z,5.03
2023-04-03T10:40:06.697Z,2.92
2023-04-03T10:41:19.922Z,3.13
2023-04-03T10:43:21.048Z,2.78
2023-04-03T10:44:55.733Z,3.95
2023-04-03T10:46:37.769Z,4.53
2023-04-03T10:47:50.065Z,3.40
2023-04-03T10:49:33.778Z,4.05
2023-04-03T10:51:07.405Z,3.95
2023-04-03T10:52:29.236Z,7.15
2023-04-03T10:53:51.181Z,3.97
2023-04-03T10:54:56.559Z,3.53
2023-04-03T10:56:18.872Z,3.13
2023-04-03T10:57:26.061Z,3.47
2023-04-03T10:58:33.909Z,3.13
2023-04-03T10:59:50.882Z,2.55
2023-04-03T11:00:56.327Z,2.35
2023-04-03T11:02:25.320Z,3.70
2023-04-03T11:03:36.857Z,2.65
2023-04-03T11:04:41.757Z,2.35
2023-04-03T11:05:49.037Z,2.92
2023-04-03T11:07:13.451Z,4.03
2023-04-03T11:08:46.472Z,5.80
2023-04-03T11:09:54.984Z,3.03
2023-04-03T11:11:01.531Z,3.05
2023-04-03T11:12:34.518Z,3.65
2023-04-03T11:13:47.294Z,5.63
2023-04-03T11:14:52.579Z,2.72
2023-04-03T11:15:56.370Z,2.63
2023-04-03T11:17:23.858Z,2.90
2023-04-03T11:18:50.446Z,3.75
2023-04-03T11:20:22.142Z,4.22
2023-04-03T11:21:46.246Z,5.82
2023-04-03T11:22:53.523Z,3.22
2023-04-03T11:23:59.317Z,3.80
2023-04-03T11:25:14.816Z,3.15
2023-04-03T11:26:23.871Z,3.28
2023-04-03T11:27:33.701Z,4.90
2023-04-03T11:28:38.130Z,5.97
2023-04-03T11:29:43.481Z,3.00
2023-04-03T11:30:53.691Z,3.55
2023-04-03T11:33:30.910Z,3.28
2023-04-03T11:34:44.240Z,6.82
2023-04-03T11:36:18.958Z,2.38
2023-04-03T11:37:34.975Z,3.10
2023-04-03T11:38:44.473Z,3.53
2023-04-03T11:39:58.466Z,1.70
2023-04-03T11:41:02.297Z,2.20
2023-04-03T11:42:38.754Z,2.92
2023-04-03T11:43:58.394Z,2.17
2023-04-03T11:45:28.004Z,2.58
2023-04-03T11:47:03.830Z,2.10
2023-04-03T11:48:28.111Z,3.83
2023-04-03T11:50:00.680Z,3.10
2023-04-03T11:51:18.559Z,3.15
2023-04-03T11:52:41.072Z,3.17
2023-04-03T11:53:46.920Z,3.22
2023-04-03T11:54:50.266Z,1.75
2023-04-03T11:55:59.949Z,2.33
2023-04-03T11:57:40.998Z,2.65
2023-04-03T11:59:06.061Z,3.53
2023-04-03T12:00:52.352Z,5.07
2023-04-03T12:01:57.522Z,1.67
2023-04-03T12:03:02.540Z,3.53
2023-04-03T12:04:17.652Z,3.33
2023-04-03T12:05:31.543Z,2.95
2023-04-03T12:06:34.193Z,3.17
2023-04-03T12:07:36.915Z,2.45
2023-04-03T12:08:48.431Z,3.90
2023-04-03T12:09:59.873Z,1.63
2023-04-03T12:11:14.480Z,3.25
2023-04-03T12:12:39.184Z,3.05
2023-04-03T12:13:54.614Z,3.85
2023-04-03T12:15:12.729Z,1.75
2023-04-03T12:16:30.511Z,1.48
2023-04-03T12:17:35.524Z,2.92
2023-04-03T12:18:45.309Z,1.77
2023-04-03T12:19:48.393Z,1.65
2023-04-03T12:20:59.035Z,1.98
2023-04-03T12:22:01.435Z,1.40
2023-04-03T12:23:27.200Z,2.10
2023-04-03T12:24:32.037Z,1.35
2023-04-03T12:25:51.965Z,1.50
2023-04-03T12:27:19.353Z,2.85
2023-04-03T12:28:21.730Z,3.58
2023-04-03T12:31:13.545Z,2.20
2023-04-03T12:32:31.275Z,1.65
2023-04-03T12:33:48.117Z,1.52
2023-04-03T12:35:18.425Z,1.33
2023-04-03T12:36:31.762Z,2.50
2023-04-03T12:37:36.813Z,1.20
2023-04-03T12:39:27.548Z,2.70
2023-04-03T12:40:36.923Z,2.22
2023-04-03T12:42:02.505Z,4.68
2023-04-03T12:43:36.514Z,2.75
2023-04-03T12:44:51.298Z,2.50
2023-04-03T12:46:08.486Z,2.45
2023-04-03T12:47:34.237Z,1.65
2023-04-03T12:48:46.474Z,2.15
2023-04-03T12:49:52.837Z,3.75
2023-04-03T12:50:56.750Z,1.50
2023-04-03T12:52:00.022Z,1.85
2023-04-03T12:53:07.995Z,2.03
2023-04-03T12:54:20.612Z,3.53
2023-04-03T12:55:23.220Z,0.90
2023-04-03T12:56:33.719Z,3.88
2023-04-03T12:57:37.389Z,2.22
2023-04-03T12:58:39.710Z,4.03
2023-04-03T12:59:44.927Z,5.38
2023-04-03T13:00:59.170Z,2.65
2023-04-03T13:02:02.806Z,1.63
2023-04-03T13:03:07.025Z,2.00
2023-04-03T13:04:12.578Z,1.70
2023-04-03T13:05:18.957Z,1.20
2023-04-03T13:06:28.110Z,1.55
2023-04-03T13:07:35.703Z,2.92
2023-04-03T13:08:38.362Z,1.75
2023-04-03T13:09:40.760Z,2.67
2023-04-03T13:10:55.458Z,1.55
2023-04-03T13:12:04.516Z,2.97
2023-04-03T13:13:10.938Z,2.83
2023-04-03T13:14:19.857Z,1.77
2023-04-03T13:15:30.350Z,1.40
2023-04-03T13:16:35.135Z,1.23
2023-04-03T13:17:40.426Z,1.25
2023-04-03T13:18:43.097Z,1.92
2023-04-03T13:19:49.498Z,2.90
2023-04-03T13:20:52.609Z,1.67
2023-04-03T13:22:02.060Z,1.63
2023-04-03T13:23:10.105Z,2.00
2023-04-03T13:24:15.634Z,1.52
2023-04-03T13:25:21.337Z,0.73
2023-04-03T13:26:28.471Z,2.08
2023-04-03T13:27:32.312Z,1.35
2023-04-03T13:28:36.280Z,1.58
2023-04-03T13:29:39.927Z,1.25
2023-04-03T13:30:57.729Z,3.78
2023-04-03T13:32:02.910Z,1.10
2023-04-03T13:33:20.126Z,1.55
2023-04-03T13:34:26.004Z,1.02
2023-04-03T13:35:41.671Z,1.10
2023-04-03T13:37:05.246Z,1.17
2023-04-03T13:38:25.927Z,1.20
2023-04-03T13:39:34.153Z,1.42
2023-04-03T13:40:49.451Z,2.30
2023-04-03T13:41:56.938Z,1.20
2023-04-03T13:43:04.941Z,2.45
2023-04-03T13:44:40.602Z,1.77
2023-04-03T13:45:59.568Z,1.42
2023-04-03T13:47:16.496Z,1.75
2023-04-03T13:48:23.548Z,1.02
2023-04-03T13:49:31.951Z,1.63
2023-04-03T13:50:50.653Z,2.35
2023-04-03T13:52:06.447Z,1.38
2023-04-03T13:53:14.691Z,0.90
2023-04-03T13:54:37.960Z,1.35
2023-04-03T13:56:17.340Z,1.55
2023-04-03T13:57:20.188Z,2.15
2023-04-03T13:58:29.617Z,1.15
2023-04-03T13:59:38.721Z,1.48
2023-04-03T14:00:52.027Z,2.67
2023-04-03T14:02:03.558Z,3.25
2023-04-03T14:03:20.406Z,1.08
2023-04-03T14:04:29.411Z,0.98
2023-04-03T14:05:31.795Z,1.10
2023-04-03T14:06:34.263Z,2.55
2023-04-03T14:07:37.440Z,2.15
2023-04-03T14:08:43.430Z,1.05
2023-04-03T14:09:46.650Z,2.05
2023-04-03T14:10:51.675Z,1.95
2023-04-03T14:12:05.829Z,2.03
2023-04-03T14:13:12.587Z,1.10
2023-04-03T14:14:22.471Z,1.85
2023-04-03T14:15:28.399Z,1.90
2023-04-03T14:16:33.146Z,1.25
2023-04-03T14:17:36.004Z,1.98
2023-04-03T14:18:39.556Z,1.50
2023-04-03T14:19:42.229Z,2.85
2023-04-03T14:20:49.306Z,1.85
2023-04-03T14:21:57.481Z,2.03
2023-04-03T14:22:59.894Z,1.88
2023-04-03T14:24:04.079Z,1.75
2023-04-03T14:25:07.980Z,1.20
2023-04-03T14:26:19.172Z,1.83
2023-04-03T14:28:37.778Z,1.35
2023-04-03T14:29:40.257Z,1.25
2023-04-03T14:30:42.804Z,2.03
2023-04-03T14:31:47.505Z,2.70
2023-04-03T14:32:51.380Z,1.33
2023-04-03T14:33:53.988Z,2.83
2023-04-03T14:34:58.174Z,1.08
2023-04-03T14:36:03.699Z,1.35
2023-04-03T14:37:11.067Z,1.30
2023-04-03T14:38:26.922Z,2.55
2023-04-03T14:39:29.401Z,1.67
2023-04-03T14:40:31.888Z,5.07
2023-04-03T14:41:34.290Z,1.65
2023-04-03T14:42:39.557Z,2.17
2023-04-03T14:43:42.816Z,2.83
2023-04-03T14:44:45.738Z,1.95
2023-04-03T14:45:49.478Z,1.95
2023-04-03T14:46:56.895Z,2.25
2023-04-03T14:48:00.592Z,1.73
2023-04-03T14:49:03.930Z,1.92
2023-04-03T14:50:08.424Z,1.75
2023-04-03T14:51:13.032Z,3.00
2023-04-03T14:52:24.099Z,6.75
2023-04-03T14:53:37.916Z,2.35
2023-04-03T14:54:41.522Z,3.05
2023-04-03T14:55:46.547Z,1.77